sensor_id;sensor_type;location;lat;lon;timestamp;pressure;altitude;pressure_sealevel;temperature;humidity
42811;BME280;28457;55.680;37.656;2022-09-27T00:01:14;99603.66;;;9.41;73.01
42811;BME280;28457;55.680;37.656;2022-09-27T00:03:43;99608.38;;;9.39;73.47
42811;BME280;28457;55.680;37.656;2022-09-27T00:06:14;99613.75;;;9.39;73.37
42811;BME280;28457;55.680;37.656;2022-09-27T00:08:43;99606.06;;;9.35;73.10
42811;BME280;28457;55.680;37.656;2022-09-27T00:11:18;99603.59;;;9.34;72.74
42811;BME280;28457;55.680;37.656;2022-09-27T00:13:48;99606.41;;;9.26;72.97
42811;BME280;28457;55.680;37.656;2022-09-27T00:16:16;99617.31;;;9.24;72.39
42811;BME280;28457;55.680;37.656;2022-09-27T00:18:45;99616.41;;;9.17;72.50
42811;BME280;28457;55.680;37.656;2022-09-27T00:21:14;99614.53;;;9.18;74.12
42811;BME280;28457;55.680;37.656;2022-09-27T00:23:43;99614.38;;;9.19;74.15
42811;BME280;28457;55.680;37.656;2022-09-27T00:26:12;99609.38;;;9.16;73.55
42811;BME280;28457;55.680;37.656;2022-09-27T00:28:41;99611.22;;;9.16;73.59
42811;BME280;28457;55.680;37.656;2022-09-27T00:31:17;99604.81;;;9.17;73.08
42811;BME280;28457;55.680;37.656;2022-09-27T00:33:47;99605.84;;;9.16;72.82
42811;BME280;28457;55.680;37.656;2022-09-27T00:36:19;99609.56;;;9.15;72.92
42811;BME280;28457;55.680;37.656;2022-09-27T00:38:48;99603.53;;;9.13;72.80
42811;BME280;28457;55.680;37.656;2022-09-27T00:41:19;99609.13;;;9.11;72.19
42811;BME280;28457;55.680;37.656;2022-09-27T00:43:49;99614.50;;;9.11;72.79
42811;BME280;28457;55.680;37.656;2022-09-27T00:46:22;99619.00;;;9.10;72.19
42811;BME280;28457;55.680;37.656;2022-09-27T00:49:02;99622.91;;;9.08;72.03
42811;BME280;28457;55.680;37.656;2022-09-27T00:51:36;99609.66;;;9.06;72.48
42811;BME280;28457;55.680;37.656;2022-09-27T00:54:08;99613.75;;;9.02;72.53
42811;BME280;28457;55.680;37.656;2022-09-27T00:56:38;99623.66;;;9.02;72.29
42811;BME280;28457;55.680;37.656;2022-09-27T00:59:10;99623.88;;;9.00;72.54
42811;BME280;28457;55.680;37.656;2022-09-27T01:01:41;99619.50;;;8.99;72.28
42811;BME280;28457;55.680;37.656;2022-09-27T01:04:12;99618.84;;;8.97;71.59
42811;BME280;28457;55.680;37.656;2022-09-27T01:06:42;99621.72;;;8.96;71.92
42811;BME280;28457;55.680;37.656;2022-09-27T01:09:11;99625.44;;;8.95;71.56
42811;BME280;28457;55.680;37.656;2022-09-27T01:11:43;99631.00;;;8.93;71.17
42811;BME280;28457;55.680;37.656;2022-09-27T01:14:23;99625.78;;;8.92;71.34
42811;BME280;28457;55.680;37.656;2022-09-27T01:17:00;99626.00;;;8.90;71.61
42811;BME280;28457;55.680;37.656;2022-09-27T01:19:50;99626.16;;;8.88;70.94
42811;BME280;28457;55.680;37.656;2022-09-27T01:22:28;99622.03;;;8.86;71.58
42811;BME280;28457;55.680;37.656;2022-09-27T01:25:08;99628.38;;;8.85;71.35
42811;BME280;28457;55.680;37.656;2022-09-27T01:27:56;99624.03;;;8.84;71.46
42811;BME280;28457;55.680;37.656;2022-09-27T01:30:38;99630.44;;;8.83;71.22
42811;BME280;28457;55.680;37.656;2022-09-27T01:33:16;99629.31;;;8.77;71.89
42811;BME280;28457;55.680;37.656;2022-09-27T01:35:56;99620.19;;;8.72;71.72
42811;BME280;28457;55.680;37.656;2022-09-27T01:38:36;99613.31;;;8.69;72.06
42811;BME280;28457;55.680;37.656;2022-09-27T01:41:18;99614.97;;;8.70;72.22
42811;BME280;28457;55.680;37.656;2022-09-27T01:44:17;99616.00;;;8.69;72.00
42811;BME280;28457;55.680;37.656;2022-09-27T01:46:55;99613.47;;;8.68;71.95
42811;BME280;28457;55.680;37.656;2022-09-27T01:49:41;99617.03;;;8.68;71.86
42811;BME280;28457;55.680;37.656;2022-09-27T01:52:17;99609.97;;;8.67;72.20
42811;BME280;28457;55.680;37.656;2022-09-27T01:54:51;99609.34;;;8.65;71.62
42811;BME280;28457;55.680;37.656;2022-09-27T01:57:24;99607.59;;;8.57;72.17
42811;BME280;28457;55.680;37.656;2022-09-27T01:59:58;99606.09;;;8.55;72.24
42811;BME280;28457;55.680;37.656;2022-09-27T02:02:46;99602.22;;;8.57;72.74
42811;BME280;28457;55.680;37.656;2022-09-27T02:05:37;99605.91;;;8.56;72.21
42811;BME280;28457;55.680;37.656;2022-09-27T02:08:32;99612.09;;;8.57;73.91
42811;BME280;28457;55.680;37.656;2022-09-27T02:11:10;99596.66;;;8.59;74.55
42811;BME280;28457;55.680;37.656;2022-09-27T02:13:46;99603.66;;;8.60;74.49
42811;BME280;28457;55.680;37.656;2022-09-27T02:16:48;99605.53;;;8.59;74.71
42811;BME280;28457;55.680;37.656;2022-09-27T02:19:31;99614.97;;;8.55;74.71
42811;BME280;28457;55.680;37.656;2022-09-27T02:22:11;99606.66;;;8.50;74.82
42811;BME280;28457;55.680;37.656;2022-09-27T02:24:45;99612.66;;;8.52;75.40
42811;BME280;28457;55.680;37.656;2022-09-27T02:27:18;99611.25;;;8.56;74.90
42811;BME280;28457;55.680;37.656;2022-09-27T02:29:53;99606.72;;;8.57;75.11
42811;BME280;28457;55.680;37.656;2022-09-27T02:32:24;99603.22;;;8.56;75.07
42811;BME280;28457;55.680;37.656;2022-09-27T02:34:56;99610.06;;;8.59;74.89
42811;BME280;28457;55.680;37.656;2022-09-27T02:37:29;99598.50;;;8.58;74.74
42811;BME280;28457;55.680;37.656;2022-09-27T02:39:57;99609.69;;;8.62;74.28
42811;BME280;28457;55.680;37.656;2022-09-27T02:42:27;99612.84;;;8.66;74.27
42811;BME280;28457;55.680;37.656;2022-09-27T02:44:56;99616.16;;;8.68;74.33
42811;BME280;28457;55.680;37.656;2022-09-27T02:47:34;99618.03;;;8.67;73.75
42811;BME280;28457;55.680;37.656;2022-09-27T02:50:21;99619.25;;;8.65;72.99
42811;BME280;28457;55.680;37.656;2022-09-27T02:53:30;99618.38;;;8.64;72.79
42811;BME280;28457;55.680;37.656;2022-09-27T02:56:25;99626.44;;;8.64;72.65
42811;BME280;28457;55.680;37.656;2022-09-27T02:59:43;99629.31;;;8.62;72.44
42811;BME280;28457;55.680;37.656;2022-09-27T03:02:32;99628.41;;;8.55;73.03
42811;BME280;28457;55.680;37.656;2022-09-27T03:05:30;99634.59;;;8.56;72.82
42811;BME280;28457;55.680;37.656;2022-09-27T03:08:00;99624.69;;;8.56;72.80
42811;BME280;28457;55.680;37.656;2022-09-27T03:10:31;99630.88;;;8.57;72.60
42811;BME280;28457;55.680;37.656;2022-09-27T03:13:00;99642.84;;;8.54;72.33
42811;BME280;28457;55.680;37.656;2022-09-27T03:15:30;99648.22;;;8.54;72.58
42811;BME280;28457;55.680;37.656;2022-09-27T03:18:02;99634.31;;;8.51;72.31
42811;BME280;28457;55.680;37.656;2022-09-27T03:20:41;99629.03;;;8.43;72.46
42811;BME280;28457;55.680;37.656;2022-09-27T03:23:11;99636.94;;;8.36;72.60
42811;BME280;28457;55.680;37.656;2022-09-27T03:25:40;99633.63;;;8.34;73.81
42811;BME280;28457;55.680;37.656;2022-09-27T03:28:11;99637.13;;;8.34;74.05
42811;BME280;28457;55.680;37.656;2022-09-27T03:30:41;99633.09;;;8.38;74.31
42811;BME280;28457;55.680;37.656;2022-09-27T03:33:11;99637.47;;;8.39;73.59
42811;BME280;28457;55.680;37.656;2022-09-27T03:35:47;99636.81;;;8.37;73.33
42811;BME280;28457;55.680;37.656;2022-09-27T03:38:16;99636.84;;;8.29;73.25
42811;BME280;28457;55.680;37.656;2022-09-27T03:40:44;99636.56;;;8.24;73.70
42811;BME280;28457;55.680;37.656;2022-09-27T03:43:13;99641.44;;;8.21;74.12
42811;BME280;28457;55.680;37.656;2022-09-27T03:45:45;99638.13;;;8.19;74.70
42811;BME280;28457;55.680;37.656;2022-09-27T03:48:16;99639.31;;;8.16;74.52
42811;BME280;28457;55.680;37.656;2022-09-27T03:50:44;99635.81;;;8.15;74.32
42811;BME280;28457;55.680;37.656;2022-09-27T03:53:14;99641.06;;;8.09;74.31
42811;BME280;28457;55.680;37.656;2022-09-27T03:55:44;99636.53;;;8.09;74.50
42811;BME280;28457;55.680;37.656;2022-09-27T03:58:13;99635.97;;;8.14;74.98
42811;BME280;28457;55.680;37.656;2022-09-27T04:00:44;99636.44;;;8.18;74.66
42811;BME280;28457;55.680;37.656;2022-09-27T04:03:13;99643.97;;;8.22;74.42
42811;BME280;28457;55.680;37.656;2022-09-27T04:06:03;99641.09;;;8.24;73.93
42811;BME280;28457;55.680;37.656;2022-09-27T04:08:38;99652.53;;;8.18;74.15
42811;BME280;28457;55.680;37.656;2022-09-27T04:11:07;99652.88;;;8.14;74.13
42811;BME280;28457;55.680;37.656;2022-09-27T04:13:37;99653.09;;;8.13;74.93
42811;BME280;28457;55.680;37.656;2022-09-27T04:16:06;99648.38;;;8.15;74.89
42811;BME280;28457;55.680;37.656;2022-09-27T04:19:09;99647.53;;;8.14;75.39
42811;BME280;28457;55.680;37.656;2022-09-27T04:22:04;99646.88;;;8.12;75.82
42811;BME280;28457;55.680;37.656;2022-09-27T04:24:34;99652.38;;;8.19;75.93
42811;BME280;28457;55.680;37.656;2022-09-27T04:27:28;99649.13;;;8.24;75.83
42811;BME280;28457;55.680;37.656;2022-09-27T04:29:57;99656.00;;;8.26;74.88
42811;BME280;28457;55.680;37.656;2022-09-27T04:33:04;99655.53;;;8.23;75.29
42811;BME280;28457;55.680;37.656;2022-09-27T04:35:38;99658.22;;;8.23;76.01
42811;BME280;28457;55.680;37.656;2022-09-27T04:38:26;99660.06;;;8.22;75.87
42811;BME280;28457;55.680;37.656;2022-09-27T04:40:55;99657.38;;;8.22;76.35
42811;BME280;28457;55.680;37.656;2022-09-27T04:43:32;99656.34;;;8.23;76.63
42811;BME280;28457;55.680;37.656;2022-09-27T04:46:02;99655.53;;;8.23;77.20
42811;BME280;28457;55.680;37.656;2022-09-27T04:48:32;99657.84;;;8.26;77.43
42811;BME280;28457;55.680;37.656;2022-09-27T04:51:01;99651.09;;;8.30;77.50
42811;BME280;28457;55.680;37.656;2022-09-27T04:53:30;99659.25;;;8.36;77.64
42811;BME280;28457;55.680;37.656;2022-09-27T04:56:00;99667.16;;;8.38;77.62
42811;BME280;28457;55.680;37.656;2022-09-27T04:58:33;99670.13;;;8.43;77.46
42811;BME280;28457;55.680;37.656;2022-09-27T05:01:02;99665.25;;;8.47;77.68
42811;BME280;28457;55.680;37.656;2022-09-27T05:04:06;99666.34;;;8.52;77.39
42811;BME280;28457;55.680;37.656;2022-09-27T05:06:37;99673.47;;;8.60;77.29
42811;BME280;28457;55.680;37.656;2022-09-27T05:09:16;99669.88;;;8.68;77.96
42811;BME280;28457;55.680;37.656;2022-09-27T05:11:51;99653.03;;;8.74;77.98
42811;BME280;28457;55.680;37.656;2022-09-27T05:14:22;99650.44;;;8.80;77.63
42811;BME280;28457;55.680;37.656;2022-09-27T05:17:13;99653.22;;;8.87;77.24
42811;BME280;28457;55.680;37.656;2022-09-27T05:20:07;99656.16;;;8.92;76.97
42811;BME280;28457;55.680;37.656;2022-09-27T05:22:47;99655.25;;;9.00;77.25
42811;BME280;28457;55.680;37.656;2022-09-27T05:25:16;99650.78;;;9.07;76.83
42811;BME280;28457;55.680;37.656;2022-09-27T05:27:46;99650.03;;;9.13;76.63
42811;BME280;28457;55.680;37.656;2022-09-27T05:30:15;99652.81;;;9.20;76.39
42811;BME280;28457;55.680;37.656;2022-09-27T05:32:47;99647.72;;;9.25;76.13
42811;BME280;28457;55.680;37.656;2022-09-27T05:35:25;99646.13;;;9.30;76.73
42811;BME280;28457;55.680;37.656;2022-09-27T05:37:58;99650.94;;;9.35;76.39
42811;BME280;28457;55.680;37.656;2022-09-27T05:40:30;99646.47;;;9.42;76.05
42811;BME280;28457;55.680;37.656;2022-09-27T05:43:11;99639.31;;;9.49;75.98
42811;BME280;28457;55.680;37.656;2022-09-27T05:45:39;99642.28;;;9.54;76.40
42811;BME280;28457;55.680;37.656;2022-09-27T05:48:10;99650.41;;;9.61;76.57
42811;BME280;28457;55.680;37.656;2022-09-27T05:50:51;99645.75;;;9.70;76.01
42811;BME280;28457;55.680;37.656;2022-09-27T05:53:19;99643.34;;;9.75;76.49
42811;BME280;28457;55.680;37.656;2022-09-27T05:55:47;99645.06;;;9.82;76.22
42811;BME280;28457;55.680;37.656;2022-09-27T05:58:20;99652.16;;;9.90;76.50
42811;BME280;28457;55.680;37.656;2022-09-27T06:00:57;99638.78;;;9.97;76.19
42811;BME280;28457;55.680;37.656;2022-09-27T06:03:48;99643.19;;;10.04;75.95
42811;BME280;28457;55.680;37.656;2022-09-27T06:06:40;99632.50;;;10.11;76.04
42811;BME280;28457;55.680;37.656;2022-09-27T06:09:10;99629.66;;;10.19;75.53
42811;BME280;28457;55.680;37.656;2022-09-27T06:11:38;99626.38;;;10.24;75.81
42811;BME280;28457;55.680;37.656;2022-09-27T06:14:14;99633.50;;;10.31;75.35
42811;BME280;28457;55.680;37.656;2022-09-27T06:17:03;99634.38;;;10.39;75.65
42811;BME280;28457;55.680;37.656;2022-09-27T06:19:34;99633.41;;;10.46;75.90
42811;BME280;28457;55.680;37.656;2022-09-27T06:22:03;99632.44;;;10.54;75.93
42811;BME280;28457;55.680;37.656;2022-09-27T06:24:48;99628.53;;;10.63;75.96
42811;BME280;28457;55.680;37.656;2022-09-27T06:27:22;99624.66;;;10.72;75.91
42811;BME280;28457;55.680;37.656;2022-09-27T06:30:14;99625.97;;;10.83;75.87
42811;BME280;28457;55.680;37.656;2022-09-27T06:32:56;99627.50;;;10.92;75.61
42811;BME280;28457;55.680;37.656;2022-09-27T06:35:30;99624.00;;;11.05;74.90
42811;BME280;28457;55.680;37.656;2022-09-27T06:38:02;99625.53;;;11.14;74.52
42811;BME280;28457;55.680;37.656;2022-09-27T06:40:31;99618.72;;;11.25;74.37
42811;BME280;28457;55.680;37.656;2022-09-27T06:43:25;99624.13;;;11.38;74.30
42811;BME280;28457;55.680;37.656;2022-09-27T06:46:34;99613.41;;;11.51;73.02
42811;BME280;28457;55.680;37.656;2022-09-27T06:49:51;99619.03;;;11.70;72.46
42811;BME280;28457;55.680;37.656;2022-09-27T06:52:20;99624.72;;;11.88;69.45
42811;BME280;28457;55.680;37.656;2022-09-27T06:54:48;99629.50;;;12.06;67.33
42811;BME280;28457;55.680;37.656;2022-09-27T06:57:17;99619.94;;;12.23;67.79
42811;BME280;28457;55.680;37.656;2022-09-27T07:00:08;99621.19;;;12.41;66.50
42811;BME280;28457;55.680;37.656;2022-09-27T07:03:11;99623.69;;;12.56;66.26
42811;BME280;28457;55.680;37.656;2022-09-27T07:06:00;99622.41;;;12.65;66.12
42811;BME280;28457;55.680;37.656;2022-09-27T07:08:44;99616.09;;;12.91;66.31
42811;BME280;28457;55.680;37.656;2022-09-27T07:11:12;99611.03;;;13.14;65.77
42811;BME280;28457;55.680;37.656;2022-09-27T07:13:41;99610.19;;;13.21;63.84
42811;BME280;28457;55.680;37.656;2022-09-27T07:16:10;99620.94;;;13.40;63.69
42811;BME280;28457;55.680;37.656;2022-09-27T07:18:42;99616.47;;;13.91;64.09
42811;BME280;28457;55.680;37.656;2022-09-27T07:21:10;99610.91;;;14.36;62.06
42811;BME280;28457;55.680;37.656;2022-09-27T07:23:39;99611.66;;;14.43;59.88
42811;BME280;28457;55.680;37.656;2022-09-27T07:26:10;99610.75;;;14.56;60.55
42811;BME280;28457;55.680;37.656;2022-09-27T07:28:39;99613.66;;;14.98;59.92
42811;BME280;28457;55.680;37.656;2022-09-27T07:31:12;99609.75;;;15.42;58.49
42811;BME280;28457;55.680;37.656;2022-09-27T07:33:42;99610.19;;;15.88;56.31
42811;BME280;28457;55.680;37.656;2022-09-27T07:36:12;99602.34;;;16.57;55.20
42811;BME280;28457;55.680;37.656;2022-09-27T07:38:43;99603.94;;;17.16;53.20
42811;BME280;28457;55.680;37.656;2022-09-27T07:41:13;99601.06;;;18.09;52.65
42811;BME280;28457;55.680;37.656;2022-09-27T07:43:44;99601.34;;;18.97;51.70
42811;BME280;28457;55.680;37.656;2022-09-27T07:46:13;99599.50;;;19.73;50.26
42811;BME280;28457;55.680;37.656;2022-09-27T07:48:51;99605.78;;;20.33;46.69
42811;BME280;28457;55.680;37.656;2022-09-27T07:51:32;99600.50;;;21.01;45.71
42811;BME280;28457;55.680;37.656;2022-09-27T07:54:07;99595.03;;;21.74;42.74
42811;BME280;28457;55.680;37.656;2022-09-27T07:56:35;99596.44;;;22.48;41.14
42811;BME280;28457;55.680;37.656;2022-09-27T07:59:06;99598.03;;;22.75;40.01
42811;BME280;28457;55.680;37.656;2022-09-27T08:01:34;99597.88;;;23.31;38.37
42811;BME280;28457;55.680;37.656;2022-09-27T08:04:04;99585.03;;;23.65;38.55
42811;BME280;28457;55.680;37.656;2022-09-27T08:06:33;99587.97;;;24.19;37.28
42811;BME280;28457;55.680;37.656;2022-09-27T08:09:04;99587.34;;;24.61;35.29
42811;BME280;28457;55.680;37.656;2022-09-27T08:11:33;99587.19;;;25.00;35.77
42811;BME280;28457;55.680;37.656;2022-09-27T08:14:03;99587.66;;;25.31;35.51
42811;BME280;28457;55.680;37.656;2022-09-27T08:16:33;99576.13;;;25.67;33.46
42811;BME280;28457;55.680;37.656;2022-09-27T08:19:22;99582.56;;;25.82;31.62
42811;BME280;28457;55.680;37.656;2022-09-27T08:22:12;99578.53;;;25.74;32.96
42811;BME280;28457;55.680;37.656;2022-09-27T08:24:53;99579.84;;;25.58;33.02
42811;BME280;28457;55.680;37.656;2022-09-27T08:27:41;99586.31;;;25.29;32.92
42811;BME280;28457;55.680;37.656;2022-09-27T08:30:24;99583.81;;;24.26;33.62
42811;BME280;28457;55.680;37.656;2022-09-27T08:32:56;99582.66;;;23.98;32.39
42811;BME280;28457;55.680;37.656;2022-09-27T08:35:26;99588.50;;;23.37;33.39
42811;BME280;28457;55.680;37.656;2022-09-27T08:37:56;99585.69;;;22.72;35.55
42811;BME280;28457;55.680;37.656;2022-09-27T08:40:33;99588.22;;;22.43;35.45
42811;BME280;28457;55.680;37.656;2022-09-27T08:43:10;99584.88;;;21.95;36.00
42811;BME280;28457;55.680;37.656;2022-09-27T08:45:53;99586.53;;;21.75;36.19
42811;BME280;28457;55.680;37.656;2022-09-27T08:48:26;99585.09;;;21.47;37.85
42811;BME280;28457;55.680;37.656;2022-09-27T08:50:57;99587.84;;;20.90;38.02
42811;BME280;28457;55.680;37.656;2022-09-27T08:53:32;99583.16;;;20.43;38.10
42811;BME280;28457;55.680;37.656;2022-09-27T08:56:06;99585.44;;;20.19;38.54
42811;BME280;28457;55.680;37.656;2022-09-27T08:58:44;99584.13;;;19.40;39.24
42811;BME280;28457;55.680;37.656;2022-09-27T09:01:20;99585.09;;;19.07;41.27
42811;BME280;28457;55.680;37.656;2022-09-27T09:04:25;99589.97;;;18.83;41.19
42811;BME280;28457;55.680;37.656;2022-09-27T09:07:07;99587.66;;;18.75;41.59
42811;BME280;28457;55.680;37.656;2022-09-27T09:09:46;99592.53;;;18.73;42.32
42811;BME280;28457;55.680;37.656;2022-09-27T09:12:31;99587.81;;;18.68;42.54
42811;BME280;28457;55.680;37.656;2022-09-27T09:15:43;99586.41;;;18.82;43.25
42811;BME280;28457;55.680;37.656;2022-09-27T09:18:34;99583.09;;;19.02;42.14
42811;BME280;28457;55.680;37.656;2022-09-27T09:21:16;99580.63;;;19.23;42.86
42811;BME280;28457;55.680;37.656;2022-09-27T09:24:04;99587.09;;;19.17;41.44
42811;BME280;28457;55.680;37.656;2022-09-27T09:26:45;99577.78;;;19.12;41.92
42811;BME280;28457;55.680;37.656;2022-09-27T09:29:26;99583.41;;;19.06;42.34
42811;BME280;28457;55.680;37.656;2022-09-27T09:32:05;99583.91;;;18.81;40.79
42811;BME280;28457;55.680;37.656;2022-09-27T09:34:41;99585.50;;;18.60;41.72
42811;BME280;28457;55.680;37.656;2022-09-27T09:37:17;99577.84;;;18.40;40.34
42811;BME280;28457;55.680;37.656;2022-09-27T09:39:53;99586.13;;;18.11;40.97
42811;BME280;28457;55.680;37.656;2022-09-27T09:42:30;99585.63;;;17.98;41.22
42811;BME280;28457;55.680;37.656;2022-09-27T09:45:03;99581.31;;;17.85;42.50
42811;BME280;28457;55.680;37.656;2022-09-27T09:47:37;99585.31;;;17.65;41.75
42811;BME280;28457;55.680;37.656;2022-09-27T09:50:16;99591.31;;;17.39;41.74
42811;BME280;28457;55.680;37.656;2022-09-27T09:52:47;99584.63;;;17.30;42.62
42811;BME280;28457;55.680;37.656;2022-09-27T09:55:22;99577.25;;;17.02;42.19
42811;BME280;28457;55.680;37.656;2022-09-27T09:58:04;99573.97;;;16.88;42.22
42811;BME280;28457;55.680;37.656;2022-09-27T10:00:43;99577.16;;;16.61;43.68
42811;BME280;28457;55.680;37.656;2022-09-27T10:03:12;99573.03;;;16.59;43.76
42811;BME280;28457;55.680;37.656;2022-09-27T10:05:42;99562.63;;;16.67;44.68
42811;BME280;28457;55.680;37.656;2022-09-27T10:08:16;99583.44;;;16.62;42.65
42811;BME280;28457;55.680;37.656;2022-09-27T10:10:51;99570.91;;;16.72;43.82
42811;BME280;28457;55.680;37.656;2022-09-27T10:13:39;99569.81;;;16.97;43.65
42811;BME280;28457;55.680;37.656;2022-09-27T10:16:10;99575.44;;;17.07;42.31
42811;BME280;28457;55.680;37.656;2022-09-27T10:18:41;99562.34;;;17.04;42.40
42811;BME280;28457;55.680;37.656;2022-09-27T10:21:19;99560.78;;;17.08;43.16
42811;BME280;28457;55.680;37.656;2022-09-27T10:24:04;99560.41;;;17.16;42.94
42811;BME280;28457;55.680;37.656;2022-09-27T10:27:00;99563.94;;;17.17;43.96
42811;BME280;28457;55.680;37.656;2022-09-27T10:29:33;99564.16;;;17.27;44.04
42811;BME280;28457;55.680;37.656;2022-09-27T10:32:20;99566.81;;;17.39;43.78
42811;BME280;28457;55.680;37.656;2022-09-27T10:35:35;99566.06;;;17.55;42.58
42811;BME280;28457;55.680;37.656;2022-09-27T10:38:25;99556.72;;;17.68;42.73
42811;BME280;28457;55.680;37.656;2022-09-27T10:41:19;99561.75;;;17.88;42.41
42811;BME280;28457;55.680;37.656;2022-09-27T10:43:56;99544.59;;;18.04;42.76
42811;BME280;28457;55.680;37.656;2022-09-27T10:46:32;99553.44;;;18.11;42.20
42811;BME280;28457;55.680;37.656;2022-09-27T10:49:24;99546.31;;;18.10;42.12
42811;BME280;28457;55.680;37.656;2022-09-27T10:51:58;99552.34;;;18.12;42.20
42811;BME280;28457;55.680;37.656;2022-09-27T10:54:29;99545.66;;;18.20;42.48
42811;BME280;28457;55.680;37.656;2022-09-27T10:57:01;99553.41;;;18.28;41.78
42811;BME280;28457;55.680;37.656;2022-09-27T10:59:35;99543.06;;;18.30;42.02
42811;BME280;28457;55.680;37.656;2022-09-27T11:02:19;99541.03;;;18.59;40.84
42811;BME280;28457;55.680;37.656;2022-09-27T11:05:05;99531.16;;;19.19;41.06
42811;BME280;28457;55.680;37.656;2022-09-27T11:07:47;99532.69;;;19.86;40.64
42811;BME280;28457;55.680;37.656;2022-09-27T11:10:23;99526.66;;;20.59;39.34
42811;BME280;28457;55.680;37.656;2022-09-27T11:13:12;99524.41;;;21.08;35.30
42811;BME280;28457;55.680;37.656;2022-09-27T11:16:10;99529.78;;;21.86;34.57
42811;BME280;28457;55.680;37.656;2022-09-27T11:18:50;99520.47;;;22.23;32.37
42811;BME280;28457;55.680;37.656;2022-09-27T11:21:26;99529.25;;;22.20;31.70
42811;BME280;28457;55.680;37.656;2022-09-27T11:24:20;99519.56;;;22.58;30.94
42811;BME280;28457;55.680;37.656;2022-09-27T11:26:59;99516.66;;;23.09;32.40
42811;BME280;28457;55.680;37.656;2022-09-27T11:29:39;99504.22;;;23.66;30.50
42811;BME280;28457;55.680;37.656;2022-09-27T11:33:00;99494.31;;;24.58;28.54
42811;BME280;28457;55.680;37.656;2022-09-27T11:35:51;99494.06;;;25.21;27.25
42811;BME280;28457;55.680;37.656;2022-09-27T11:38:24;99493.16;;;25.64;30.36
42811;BME280;28457;55.680;37.656;2022-09-27T11:41:35;99493.63;;;26.36;28.00
42811;BME280;28457;55.680;37.656;2022-09-27T11:44:31;99491.06;;;27.09;25.69
42811;BME280;28457;55.680;37.656;2022-09-27T11:47:11;99481.69;;;27.68;26.31
42811;BME280;28457;55.680;37.656;2022-09-27T11:50:19;99475.56;;;28.34;24.15
42811;BME280;28457;55.680;37.656;2022-09-27T11:53:05;99472.47;;;28.67;24.79
42811;BME280;28457;55.680;37.656;2022-09-27T11:55:44;99460.91;;;28.73;24.88
42811;BME280;28457;55.680;37.656;2022-09-27T11:58:24;99470.25;;;28.95;23.45
42811;BME280;28457;55.680;37.656;2022-09-27T12:01:14;99476.78;;;28.90;24.00
42811;BME280;28457;55.680;37.656;2022-09-27T12:04:22;99480.75;;;28.58;23.28
42811;BME280;28457;55.680;37.656;2022-09-27T12:07:06;99484.84;;;27.98;25.09
42811;BME280;28457;55.680;37.656;2022-09-27T12:09:40;99477.88;;;27.42;25.16
42811;BME280;28457;55.680;37.656;2022-09-27T12:12:13;99479.81;;;26.91;26.09
42811;BME280;28457;55.680;37.656;2022-09-27T12:14:48;99475.44;;;26.49;26.77
42811;BME280;28457;55.680;37.656;2022-09-27T12:17:22;99473.59;;;25.98;27.04
42811;BME280;28457;55.680;37.656;2022-09-27T12:19:54;99465.84;;;25.48;28.09
42811;BME280;28457;55.680;37.656;2022-09-27T12:22:43;99463.63;;;24.89;27.62
42811;BME280;28457;55.680;37.656;2022-09-27T12:25:38;99465.16;;;24.28;29.21
42811;BME280;28457;55.680;37.656;2022-09-27T12:28:17;99458.22;;;23.77;29.37
42811;BME280;28457;55.680;37.656;2022-09-27T12:31:03;99462.94;;;23.32;30.39
42811;BME280;28457;55.680;37.656;2022-09-27T12:34:01;99459.66;;;22.81;30.54
42811;BME280;28457;55.680;37.656;2022-09-27T12:36:33;99458.41;;;22.37;31.89
42811;BME280;28457;55.680;37.656;2022-09-27T12:39:12;99465.88;;;22.06;32.26
42811;BME280;28457;55.680;37.656;2022-09-27T12:41:51;99465.63;;;21.72;32.68
42811;BME280;28457;55.680;37.656;2022-09-27T12:44:39;99467.81;;;21.39;33.30
42811;BME280;28457;55.680;37.656;2022-09-27T12:47:28;99460.06;;;21.11;33.48
42811;BME280;28457;55.680;37.656;2022-09-27T12:50:04;99461.31;;;20.72;35.58
42811;BME280;28457;55.680;37.656;2022-09-27T12:52:43;99457.09;;;20.49;34.89
42811;BME280;28457;55.680;37.656;2022-09-27T12:58:24;99462.53;;;20.02;36.20
42811;BME280;28457;55.680;37.656;2022-09-27T13:01:05;99452.25;;;19.77;37.34
42811;BME280;28457;55.680;37.656;2022-09-27T13:03:53;99457.78;;;19.55;37.10
42811;BME280;28457;55.680;37.656;2022-09-27T13:09:45;99462.88;;;19.14;38.48
42811;BME280;28457;55.680;37.656;2022-09-27T13:12:25;99459.34;;;18.92;38.75
42811;BME280;28457;55.680;37.656;2022-09-27T13:14:59;99459.72;;;18.78;39.02
42811;BME280;28457;55.680;37.656;2022-09-27T13:17:53;99455.47;;;18.65;38.43
42811;BME280;28457;55.680;37.656;2022-09-27T13:20:44;99458.53;;;18.47;39.31
42811;BME280;28457;55.680;37.656;2022-09-27T13:23:57;99455.06;;;18.35;40.28
42811;BME280;28457;55.680;37.656;2022-09-27T13:26:45;99449.69;;;18.18;40.31
42811;BME280;28457;55.680;37.656;2022-09-27T13:29:30;99449.28;;;18.09;40.29
42811;BME280;28457;55.680;37.656;2022-09-27T13:32:18;99445.25;;;17.95;41.15
42811;BME280;28457;55.680;37.656;2022-09-27T13:35:18;99445.59;;;17.82;41.19
42811;BME280;28457;55.680;37.656;2022-09-27T13:38:20;99455.88;;;17.63;41.46
42811;BME280;28457;55.680;37.656;2022-09-27T13:40:51;99454.31;;;17.50;41.65
42811;BME280;28457;55.680;37.656;2022-09-27T13:50:19;99448.09;;;17.21;42.31
42811;BME280;28457;55.680;37.656;2022-09-27T14:05:51;99445.13;;;16.53;44.08
42811;BME280;28457;55.680;37.656;2022-09-27T14:08:26;99435.59;;;16.39;44.38
42811;BME280;28457;55.680;37.656;2022-09-27T14:10:57;99437.53;;;16.27;44.49
42811;BME280;28457;55.680;37.656;2022-09-27T14:13:27;99429.38;;;16.27;44.76
42811;BME280;28457;55.680;37.656;2022-09-27T14:16:04;99434.47;;;16.12;45.24
42811;BME280;28457;55.680;37.656;2022-09-27T14:18:42;99438.13;;;16.06;45.40
42811;BME280;28457;55.680;37.656;2022-09-27T14:21:25;99434.25;;;16.01;45.65